createdAt,value
2024-04-12T00:01:06.183Z,14.85
2024-04-12T00:04:10.272Z,14.27
2024-04-12T00:07:17.066Z,14.02
2024-04-12T00:10:20.890Z,13.90
2024-04-12T00:13:24.308Z,13.70
2024-04-12T00:16:26.405Z,13.57
2024-04-12T00:19:31.411Z,13.60
2024-04-12T00:22:33.872Z,15.85
2024-04-12T00:25:36.591Z,13.73
2024-04-12T00:28:38.718Z,14.57
2024-04-12T00:31:43.692Z,17.85
2024-04-12T00:34:49.922Z,15.03
2024-04-12T00:37:54.988Z,12.55
2024-04-12T00:41:01.438Z,13.93
2024-04-12T00:44:06.790Z,16.03
2024-04-12T00:47:12.005Z,14.30
2024-04-12T00:50:17.739Z,12.18
2024-04-12T00:53:24.039Z,15.00
2024-04-12T00:56:30.593Z,14.52
2024-04-12T00:59:33.267Z,13.98
2024-04-12T01:02:35.041Z,17.67
2024-04-12T01:05:39.674Z,12.87
2024-04-12T01:08:41.725Z,14.98
2024-04-12T01:11:45.127Z,13.10
2024-04-12T01:14:50.762Z,13.63
2024-04-12T01:17:53.445Z,15.50
2024-04-12T01:20:55.348Z,13.65
2024-04-12T01:23:57.558Z,15.32
2024-04-12T01:26:59.703Z,13.20
2024-04-12T01:30:02.811Z,14.43
2024-04-12T01:33:07.938Z,13.73
2024-04-12T01:36:12.611Z,13.87
2024-04-12T01:39:14.409Z,14.70
2024-04-12T01:42:19.549Z,13.90
2024-04-12T01:45:29.278Z,16.27
2024-04-12T01:48:34.961Z,13.50
2024-04-12T01:51:41.804Z,15.18
2024-04-12T01:55:04.943Z,15.15
2024-04-12T01:58:07.062Z,13.57
2024-04-12T02:01:12.799Z,16.42
2024-04-12T02:04:19.644Z,15.65
2024-04-12T02:07:28.287Z,14.97
2024-04-12T02:10:30.779Z,14.35
2024-04-12T02:13:39.676Z,13.40
2024-04-12T02:16:43.173Z,14.43
2024-04-12T02:19:48.560Z,12.73
2024-04-12T02:22:51.046Z,14.13
2024-04-12T02:25:53.001Z,16.48
2024-04-12T02:29:00.640Z,14.25
2024-04-12T02:32:02.467Z,16.35
2024-04-12T02:35:05.142Z,15.90
2024-04-12T02:38:07.254Z,15.87
2024-04-12T02:41:16.626Z,13.77
2024-04-12T02:44:19.094Z,14.05
2024-04-12T02:47:21.307Z,14.63
2024-04-12T02:50:24.935Z,17.35
2024-04-12T02:53:28.139Z,13.63
2024-04-12T02:56:33.215Z,15.50
2024-04-12T02:59:35.762Z,15.15
2024-04-12T03:02:38.444Z,15.27
2024-04-12T03:05:42.238Z,15.50
2024-04-12T03:08:49.068Z,16.53
2024-04-12T03:11:52.030Z,18.83
2024-04-12T03:14:55.874Z,16.00
2024-04-12T03:17:58.662Z,14.80
2024-04-12T03:21:01.138Z,17.95
2024-04-12T03:24:06.200Z,15.07
2024-04-12T03:27:07.966Z,15.48
2024-04-12T03:30:15.912Z,17.60
2024-04-12T03:33:18.509Z,18.10
2024-04-12T03:36:28.366Z,17.08
2024-04-12T03:39:35.439Z,16.33
2024-04-12T03:42:42.954Z,17.38
2024-04-12T03:45:49.008Z,16.15
2024-04-12T03:48:54.810Z,16.73
2024-04-12T03:51:58.164Z,16.83
2024-04-12T03:55:10.458Z,16.90
2024-04-12T03:58:18.767Z,17.58
2024-04-12T04:01:21.192Z,16.08
2024-04-12T04:04:26.935Z,20.05
2024-04-12T04:07:28.817Z,16.75
2024-04-12T04:10:31.564Z,17.17
2024-04-12T04:13:35.334Z,18.98
2024-04-12T04:16:37.990Z,17.55
2024-04-12T04:19:43.913Z,17.97
2024-04-12T04:22:50.982Z,17.67
2024-04-12T04:25:56.419Z,19.08
2024-04-12T04:29:02.430Z,17.55
2024-04-12T04:32:05.251Z,18.48
2024-04-12T04:35:10.472Z,18.00
2024-04-12T04:38:15.962Z,17.08
2024-04-12T04:41:22.049Z,19.07
2024-04-12T04:44:25.845Z,17.17
2024-04-12T04:47:29.988Z,16.98
2024-04-12T04:50:32.010Z,19.10
2024-04-12T04:53:35.151Z,19.95
2024-04-12T04:56:36.894Z,23.33
2024-04-12T04:59:39.243Z,19.33
2024-04-12T05:02:44.125Z,18.15
2024-04-12T05:05:51.344Z,19.67
2024-04-12T05:08:56.425Z,21.17
2024-04-12T05:12:01.700Z,18.50
2024-04-12T05:15:37.925Z,18.17
2024-04-12T05:18:39.916Z,16.98
2024-04-12T05:21:43.371Z,19.17
2024-04-12T05:24:45.113Z,22.40
2024-04-12T05:27:46.823Z,21.40
2024-04-12T05:30:52.028Z,20.55
2024-04-12T05:33:57.343Z,23.08
2024-04-12T05:37:06.880Z,20.45
2024-04-12T05:40:14.152Z,21.83
2024-04-12T05:43:16.499Z,20.70
2024-04-12T05:46:18.701Z,22.23
2024-04-12T05:49:21.638Z,19.77
2024-04-12T05:52:24.299Z,20.03
2024-04-12T05:55:28.099Z,21.77
2024-04-12T05:58:31.135Z,23.17
2024-04-12T06:01:34.815Z,20.52
2024-04-12T06:04:37.918Z,25.00
2024-04-12T06:07:42.330Z,21.25
2024-04-12T06:10:45.833Z,23.98
2024-04-12T06:13:53.565Z,22.90
2024-04-12T06:16:59.061Z,24.90
2024-04-12T06:20:01.390Z,24.33
2024-04-12T06:23:12.229Z,22.30
2024-04-12T06:26:13.959Z,21.25
2024-04-12T06:32:25.438Z,24.58
2024-04-12T06:35:29.939Z,27.05
2024-04-12T06:38:33.290Z,23.80
2024-04-12T06:41:35.298Z,21.85
2024-04-12T06:44:37.629Z,25.80
2024-04-12T06:47:43.042Z,22.65
2024-04-12T06:50:58.212Z,24.40
2024-04-12T06:54:02.934Z,24.73
2024-04-12T06:57:05.847Z,22.05
2024-04-12T07:00:08.756Z,22.45
2024-04-12T07:03:17.132Z,25.33
2024-04-12T07:06:19.850Z,22.98
2024-04-12T07:09:24.205Z,24.75
2024-04-12T07:12:32.636Z,23.00
2024-04-12T07:15:35.276Z,24.07
2024-04-12T07:18:37.555Z,31.65
2024-04-12T07:21:39.850Z,24.98
2024-04-12T07:24:43.537Z,24.40
2024-04-12T07:27:49.459Z,23.23
2024-04-12T07:30:53.818Z,21.95
2024-04-12T07:34:01.167Z,24.67
2024-04-12T07:37:07.899Z,24.38
2024-04-12T07:40:26.004Z,23.83
2024-04-12T07:43:31.234Z,24.88
2024-04-12T07:46:38.305Z,28.57
2024-04-12T07:49:49.707Z,21.38
2024-04-12T07:52:52.421Z,23.25
2024-04-12T07:56:16.478Z,28.13
2024-04-12T07:59:26.413Z,25.00
2024-04-12T08:02:32.166Z,21.98
2024-04-12T08:05:55.720Z,24.63
2024-04-12T08:09:22.380Z,22.92
2024-04-12T08:12:25.583Z,25.48
2024-04-12T08:15:27.494Z,21.55
2024-04-12T08:18:29.756Z,23.37
2024-04-12T08:21:39.568Z,23.90
2024-04-12T08:24:42.754Z,26.50
2024-04-12T08:27:45.022Z,24.00
2024-04-12T08:30:53.655Z,26.02
2024-04-12T08:33:58.975Z,21.65
2024-04-12T08:37:04.304Z,22.95
2024-04-12T08:40:10.913Z,28.58
2024-04-12T08:46:24.039Z,23.60
2024-04-12T08:49:30.290Z,23.87
2024-04-12T08:52:49.992Z,28.70
2024-04-12T08:55:51.774Z,25.35
2024-04-12T08:58:56.762Z,26.17
2024-04-12T09:01:59.569Z,23.77
2024-04-12T09:05:01.732Z,29.52
2024-04-12T09:08:08.101Z,26.50
2024-04-12T09:11:12.469Z,27.63
2024-04-12T09:14:21.645Z,26.20
2024-04-12T09:17:29.869Z,25.73
2024-04-12T09:20:36.332Z,25.17
2024-04-12T09:23:42.408Z,21.55
2024-04-12T09:27:00.618Z,25.60
2024-04-12T09:30:22.966Z,22.55
2024-04-12T09:33:29.153Z,27.48
2024-04-12T09:36:53.632Z,23.17
2024-04-12T09:40:03.535Z,21.75
2024-04-12T09:43:16.012Z,22.13
2024-04-12T09:46:24.996Z,27.95
2024-04-12T09:49:46.573Z,29.08
2024-04-12T09:53:08.842Z,23.93
2024-04-12T09:56:34.784Z,22.80
2024-04-12T10:00:06.921Z,21.83
2024-04-12T10:03:37.434Z,23.08
2024-04-12T10:06:58.500Z,22.08
2024-04-12T10:10:19.513Z,19.27
2024-04-12T10:14:00.638Z,18.80
2024-04-12T10:17:21.198Z,20.57
2024-04-12T10:20:42.847Z,20.70
2024-04-12T10:24:04.568Z,21.48
2024-04-12T10:27:25.990Z,24.67
2024-04-12T10:30:47.360Z,19.87
2024-04-12T10:34:28.002Z,22.83
2024-04-12T10:37:30.956Z,21.85
2024-04-12T10:40:32.783Z,24.05
2024-04-12T10:43:43.142Z,22.20
2024-04-12T10:46:46.502Z,22.38
2024-04-12T10:49:48.751Z,24.20
2024-04-12T10:52:56.941Z,24.92
2024-04-12T10:56:04.207Z,19.90
2024-04-12T10:59:07.843Z,23.90
2024-04-12T11:02:13.915Z,23.55
2024-04-12T11:05:19.571Z,27.50
2024-04-12T11:08:26.354Z,23.15
2024-04-12T11:11:35.602Z,22.30
2024-04-12T11:14:39.929Z,25.00
2024-04-12T11:18:01.574Z,22.60
2024-04-12T11:21:23.067Z,26.70
2024-04-12T11:24:43.476Z,22.90
2024-04-12T11:28:04.538Z,22.92
2024-04-12T11:31:21.631Z,21.63
2024-04-12T11:34:31.932Z,25.13
2024-04-12T11:37:45.181Z,21.15
2024-04-12T11:40:50.052Z,21.23
2024-04-12T11:43:53.398Z,20.48
2024-04-12T11:46:58.151Z,19.40
2024-04-12T11:50:11.529Z,20.75
2024-04-12T11:53:17.149Z,20.25
2024-04-12T11:56:19.610Z,22.13
2024-04-12T11:59:32.209Z,20.42
2024-04-12T12:02:49.530Z,16.83
2024-04-12T12:05:57.771Z,18.50
2024-04-12T12:09:13.529Z,18.97
2024-04-12T12:12:17.775Z,17.80
2024-04-12T12:15:21.249Z,18.58
2024-04-12T12:18:24.944Z,17.17
2024-04-12T12:21:29.776Z,18.93
2024-04-12T12:24:32.612Z,17.70
2024-04-12T12:27:35.387Z,18.38
2024-04-12T12:30:37.519Z,18.23
2024-04-12T12:33:42.431Z,17.85
2024-04-12T12:36:46.084Z,15.50
2024-04-12T12:39:49.391Z,13.60
2024-04-12T12:42:54.027Z,16.02
2024-04-12T12:45:58.611Z,15.20
2024-04-12T12:49:01.021Z,16.57
2024-04-12T12:52:02.961Z,14.23
2024-04-12T12:55:06.813Z,15.63
2024-04-12T12:58:12.052Z,15.77
2024-04-12T13:01:17.707Z,16.05
2024-04-12T13:04:20.586Z,15.77
2024-04-12T13:07:23.562Z,17.63
2024-04-12T13:10:25.482Z,22.23
2024-04-12T13:13:27.897Z,16.95
2024-04-12T13:16:30.495Z,15.07
2024-04-12T13:19:32.629Z,16.17
2024-04-12T13:22:34.483Z,14.40
2024-04-12T13:25:39.292Z,14.45
2024-04-12T13:28:42.175Z,15.93
2024-04-12T13:31:46.044Z,14.20
2024-04-12T13:34:48.470Z,15.50
2024-04-12T13:37:50.585Z,19.65
2024-04-12T13:40:55.897Z,17.40
2024-04-12T13:43:59.705Z,15.35
2024-04-12T13:47:28.571Z,18.57
2024-04-12T13:50:49.235Z,18.63
2024-04-12T13:53:51.698Z,17.92
2024-04-12T13:56:57.760Z,16.75
2024-04-12T14:00:01.194Z,16.73
2024-04-12T14:03:08.400Z,15.87
2024-04-12T14:06:11.678Z,15.77
2024-04-12T14:09:15.004Z,17.80
2024-04-12T14:12:17.045Z,15.15
2024-04-12T14:15:24.542Z,16.95
2024-04-12T14:18:27.633Z,13.50
2024-04-12T14:21:30.022Z,18.35
2024-04-12T14:24:51.490Z,15.68
2024-04-12T14:27:54.454Z,16.25
2024-04-12T14:30:56.962Z,18.08
2024-04-12T14:33:58.825Z,15.97
2024-04-12T14:37:01.087Z,16.50
2024-04-12T14:40:08.303Z,16.83
2024-04-12T14:43:10.596Z,16.77
2024-04-12T14:46:12.767Z,16.27
2024-04-12T14:49:14.667Z,16.00
2024-04-12T14:52:17.446Z,12.40
2024-04-12T14:55:19.793Z,17.55
2024-04-12T14:58:21.821Z,15.32
2024-04-12T15:01:25.320Z,15.80
2024-04-12T15:04:46.102Z,15.93
2024-04-12T15:08:07.120Z,12.87
2024-04-12T15:11:27.751Z,14.50
2024-04-12T15:14:48.130Z,15.38
2024-04-12T15:18:08.919Z,13.48
2024-04-12T15:21:30.058Z,14.20
2024-04-12T15:24:50.399Z,13.80
2024-04-12T15:28:11.042Z,13.60
2024-04-12T15:31:32.320Z,14.18
2024-04-12T15:34:52.994Z,13.30
2024-04-12T15:38:13.354Z,14.93
2024-04-12T15:41:33.865Z,13.30
2024-04-12T15:44:54.846Z,16.10
2024-04-12T15:47:57.214Z,15.00
2024-04-12T15:51:02.441Z,14.00
2024-04-12T15:54:08.935Z,17.00
2024-04-12T15:57:29.342Z,13.23
2024-04-12T16:01:04.102Z,13.40
2024-04-12T16:04:25.613Z,13.35
2024-04-12T16:07:46.549Z,17.13
2024-04-12T16:10:52.028Z,13.43
2024-04-12T16:13:54.211Z,17.63
2024-04-12T16:16:55.956Z,16.92
2024-04-12T16:19:57.758Z,14.63
2024-04-12T16:22:59.760Z,14.80
2024-04-12T16:26:04.202Z,16.57
2024-04-12T16:29:10.894Z,13.87
2024-04-12T16:32:15.426Z,13.20
2024-04-12T16:35:18.296Z,17.48
2024-04-12T16:38:20.982Z,14.10
2024-04-12T16:41:23.995Z,12.87
2024-04-12T16:44:27.435Z,14.70
2024-04-12T16:47:29.464Z,13.27
2024-04-12T16:50:33.248Z,14.82
2024-04-12T16:53:37.238Z,13.60
2024-04-12T16:56:38.977Z,13.50
2024-04-12T16:59:40.759Z,16.55
2024-04-12T17:02:42.941Z,14.27
2024-04-12T17:05:48.828Z,14.15
2024-04-12T17:08:51.040Z,14.02
2024-04-12T17:11:52.760Z,17.97
2024-04-12T17:14:55.057Z,16.92
2024-04-12T17:17:57.778Z,15.77
2024-04-12T17:21:00.616Z,14.65
2024-04-12T17:24:04.118Z,14.65
2024-04-12T17:27:06.685Z,13.17
2024-04-12T17:30:10.057Z,12.68
2024-04-12T17:33:11.907Z,14.68
2024-04-12T17:36:13.833Z,15.15
2024-04-12T17:39:15.628Z,14.05
2024-04-12T17:42:17.930Z,15.43
2024-04-12T17:45:20.064Z,13.20
2024-04-12T17:48:22.554Z,12.38
2024-04-12T17:51:25.325Z,13.32
2024-04-12T17:54:27.740Z,12.02
2024-04-12T17:57:30.841Z,10.57
2024-04-12T18:00:35.445Z,13.57
2024-04-12T18:03:39.130Z,12.80
2024-04-12T18:06:44.050Z,13.80
2024-04-12T18:09:47.155Z,12.65
2024-04-12T18:12:49.596Z,10.73
2024-04-12T18:15:51.318Z,11.57
2024-04-12T18:18:53.158Z,12.95
2024-04-12T18:21:56.821Z,13.30
2024-04-12T18:24:58.881Z,13.25
2024-04-12T18:28:00.592Z,12.00
2024-04-12T18:31:06.000Z,12.20
2024-04-12T18:34:11.497Z,12.75
2024-04-12T18:37:33.193Z,13.13
2024-04-12T18:40:54.190Z,14.48
2024-04-12T18:44:15.472Z,19.53
2024-04-12T18:47:19.210Z,11.95
2024-04-12T18:50:23.747Z,15.00
2024-04-12T18:53:25.848Z,13.45
2024-04-12T18:56:27.655Z,16.00
2024-04-12T18:59:31.162Z,14.27
2024-04-12T19:02:32.989Z,12.35
2024-04-12T19:05:39.169Z,14.45
2024-04-12T19:08:42.937Z,13.20
2024-04-12T19:11:46.393Z,16.23
2024-04-12T19:14:48.504Z,14.25
2024-04-12T19:17:50.289Z,14.23
2024-04-12T19:20:52.296Z,15.18
2024-04-12T19:23:55.441Z,15.85
2024-04-12T19:27:00.405Z,13.52
2024-04-12T19:30:02.349Z,17.10
2024-04-12T19:33:04.752Z,18.10
2024-04-12T19:36:06.999Z,23.17
2024-04-12T19:39:08.898Z,19.45
2024-04-12T19:42:10.781Z,16.98
2024-04-12T19:45:13.728Z,19.05
2024-04-12T19:48:16.184Z,17.35
2024-04-12T19:51:18.498Z,22.37
2024-04-12T19:54:22.679Z,22.35
2024-04-12T19:57:25.541Z,23.55
2024-04-12T20:00:27.903Z,19.63
2024-04-12T20:03:30.745Z,24.30
2024-04-12T20:06:35.141Z,23.40
2024-04-12T20:09:37.590Z,22.38
2024-04-12T20:12:40.336Z,26.17
2024-04-12T20:15:42.743Z,25.50
2024-04-12T20:18:45.284Z,22.80
2024-04-12T20:21:50.718Z,21.55
2024-04-12T20:24:53.400Z,22.58
2024-04-12T20:27:55.210Z,24.02
2024-04-12T20:31:11.425Z,22.23
2024-04-12T20:34:25.143Z,17.58
2024-04-12T20:37:28.035Z,19.33
2024-04-12T20:40:30.402Z,18.13
2024-04-12T20:43:32.111Z,20.75
2024-04-12T20:46:35.764Z,22.00
2024-04-12T20:49:39.440Z,19.85
2024-04-12T20:52:41.129Z,19.00
2024-04-12T20:55:47.801Z,20.90
2024-04-12T20:58:50.774Z,21.40
2024-04-12T21:01:52.811Z,18.58
2024-04-12T21:04:55.467Z,23.35
2024-04-12T21:07:58.843Z,21.57
2024-04-12T21:11:12.288Z,24.08
2024-04-12T21:14:21.225Z,25.02
2024-04-12T21:17:23.765Z,22.48
2024-04-12T21:20:25.448Z,22.52
2024-04-12T21:23:27.635Z,23.48
2024-04-12T21:26:30.628Z,21.55
2024-04-12T21:29:32.386Z,24.63
2024-04-12T21:32:35.613Z,23.15
2024-04-12T21:35:37.848Z,21.90
2024-04-12T21:38:41.494Z,24.57
2024-04-12T21:41:43.269Z,24.17
2024-04-12T21:44:45.819Z,22.95
2024-04-12T21:47:47.577Z,23.58
2024-04-12T21:50:53.609Z,22.50
2024-04-12T21:53:55.408Z,23.35
2024-04-12T21:56:57.145Z,23.65
2024-04-12T22:00:01.192Z,23.27
2024-04-12T22:03:03.738Z,22.77
2024-04-12T22:06:06.653Z,23.90
2024-04-12T22:09:09.524Z,25.37
2024-04-12T22:12:11.378Z,28.42
2024-04-12T22:15:13.257Z,26.15
2024-04-12T22:18:14.991Z,23.92
2024-04-12T22:21:18.300Z,27.40
2024-04-12T22:24:20.669Z,27.50
2024-04-12T22:27:24.162Z,24.17
2024-04-12T22:30:27.392Z,26.07
2024-04-12T22:33:29.885Z,25.52
2024-04-12T22:36:31.672Z,28.73
2024-04-12T22:39:34.234Z,22.57
2024-04-12T22:42:36.000Z,25.17
2024-04-12T22:45:38.658Z,23.05
2024-04-12T22:48:41.717Z,25.08
2024-04-12T22:51:43.571Z,26.52
2024-04-12T22:54:45.853Z,25.60
2024-04-12T22:57:49.276Z,30.42
2024-04-12T23:00:51.023Z,24.60
2024-04-12T23:03:52.767Z,26.25
2024-04-12T23:06:56.048Z,29.42
2024-04-12T23:09:58.236Z,30.33
2024-04-12T23:13:00.506Z,34.95
2024-04-12T23:16:03.005Z,26.45
2024-04-12T23:19:05.809Z,25.50
2024-04-12T23:22:10.017Z,25.70
2024-04-12T23:25:13.707Z,26.70
2024-04-12T23:28:16.475Z,24.13
2024-04-12T23:31:19.087Z,28.53
2024-04-12T23:34:22.239Z,24.70
2024-04-12T23:37:24.334Z,23.92
2024-04-12T23:40:26.171Z,24.83
2024-04-12T23:43:28.293Z,24.92
2024-04-12T23:46:30.212Z,22.30
2024-04-12T23:49:31.969Z,22.83
2024-04-12T23:52:33.688Z,24.35
2024-04-12T23:55:35.762Z,21.60
2024-04-12T23:58:38.425Z,23.98
